AirNav   ATP
 
 901 users online  

KTNT Dade-Collier Training and Transition Airport
Miami, Florida, USA

GOING TO MIAMI?


FAA INFORMATION EFFECTIVE 21 JUNE 2018

Location

FAA Identifier: TNT
Lat/Long: 25-51-42.5000N / 080-53-49.2000W
25-51.708333N / 080-53.820000W
25.8618056 / -80.8970000
(estimated)
Elevation: 12.7 ft. / 3.9 m (surveyed)
Variation: 05W (2005)
From city: 36 miles W of MIAMI, FL
Time zone: UTC -4 (UTC -5 during Standard Time)
Zip code: 34141

Airport Operations

Airport use: Open to the public, ARPT CLSD TO PUBLIC EXCP BY ARRANGEMENT WITH MIAMI-DADE AVIATION DEPT MIAMI 305-869-1660.
Control tower: no
ARTCC: MIAMI CENTER
FSS: MIAMI FLIGHT SERVICE STATION
NOTAMs facility: MIA (NOTAM-D service available)
Attendance: CONTINUOUS
Wind indicator: lighted
Segmented circle: yes
Beacon: white-green (lighted land airport)
Operates sunset to sunrise.
Landing fee: yes

Airport Communications

CTAF/UNICOM: 123.0
WX AWOS-3: 119.075 ((239) 695-9198)
MIAMI APPROACH: 128.6
MIAMI DEPARTURE: 128.6
  • APCH/DEP SVC PRVDD BY MIAMI ATCT ON FREQS 128.6/306.975

Nearby radio navigation aids

VOR radial/distance  VOR name  Freq  Var
DHPr281/29.8DOLPHIN VORTAC113.9004W

 
NDB name  Hdg/Dist  Freq  Var  ID
MONRY095/6.222705WTN - -.

Airport Services

Airframe service: NONE
Powerplant service: NONE
Bottled oxygen: NONE
Bulk oxygen: NONE

Runway Information

Runway 9/27

Dimensions: 10499 x 150 ft. / 3200 x 46 m
Surface: asphalt/porous friction courses, in good condition
Weight bearing capacity: 
Single wheel: 130.0
Double wheel: 200.0
Double tandem: 400.0
Dual double tandem: 800.0
RUNWAY 9  RUNWAY 27
Latitude: 25-51.708232N25-51.707022N
Longitude: 080-54.777252W080-52.861753W
Elevation: 12.6 ft.12.4 ft.
Traffic pattern: leftright
Runway heading: 095 magnetic, 090 true275 magnetic, 270 true
Markings: precision, in fair conditionprecision, in fair condition
Touchdown point: yes, no lightsyes, no lights
Instrument approach: ILS
Obstructions: 4 ft. brush, 200 ft. from runway, 295 ft. right of centerline
+4' BRUSH, 13' FM RY END, 295' R OF CNTRLN.
4 ft. brush, 200 ft. from runway, 327 ft. right of centerline
+4' BRUSH, 56' FM RY END, 327' R OF CNTRLN.

Airport Ownership and Management from official FAA records

Ownership: Publicly-owned
Owner: MIAMI-DADE COUNTY
MIAMI-DADE AVIATION DEPARTMENT, P.O. BOX 025504
MIAMI, FL 33102-5504
Phone (305) 876-0464
Manager: NELSON MEJIAS
14201 NORTHWEST LEJEUNE ROAD
OPA-LOCKA, FL 33054
Phone (305) 869-1662
AIRPORT PHYSICAL ADDRESS: 54757 EAST TAMIAMI TRAIL, OCHOPPI, FL 34141 239-695-3300, FAX: 305-876-0565

Airport Operational Statistics

Aircraft operations: avg 40/day *
100% transient general aviation
* for 12-month period ending 26 October 2016

Additional Remarks

A100 ACR TRNG OPNS ONLY.
THREE 8IN WELLS FLUSH MTD BTN RWY AND TWY.
FEE FOR USE FOR ACFT OVER 12500 LBS.
MAEW IN BUFFER ISLAND BTN RY 09/27 & TWY.
WILDLIFE OCCASIONALLY ON & INVOF ARPT.
BE ALERT TO LOW FLYING NATIONAL PARK SVC ACFT ALL QUADRANTS.

Instrument Procedures

NOTE: All procedures below are presented as PDF files. If you need a reader for these files, you should download the free Adobe Reader.

NOT FOR NAVIGATION. Please procure official charts for flight.
FAA instrument procedures published for use from 21 June 2018 at 0901Z to 19 July 2018 at 0900Z.

 
IAPs - Instrument Approach Procedures
RNAV (GPS) RWY 09 **CHANGED**   download (222KB)

Other nearby airports with instrument procedures:

KTMB - Miami Executive Airport (28 nm SE)
X51 - Miami Homestead General Aviation Airport (29 nm SE)
KMIA - Miami International Airport (33 nm E)
KOPF - Miami-Opa Locka Executive Airport (34 nm E)
KHST - Homestead Air Reserve Base (36 nm SE)
 
Loc | Ops | Rwys | IFR | FBO | Links
Com | Nav | Svcs | Stats | Notes

Reliance Aviation
AirBoss

 
Area around KTNT (Dade-Collier Training and Transition Airport)
 
Road maps at: MapQuest Bing Google
 
Aerial photo
WARNING: Photo may not be current or correct
Aerial photo of KTNT (Dade-Collier Training and Transition Airport)
Do you have a better or more recent aerial photo of Dade-Collier Training and Transition Airport that you would like to share? If so, please send us your photo.

 
Sectional chart

 
Airport distance calculator
Flying to Dade-Collier Training and Transition Airport? Find the distance to fly.

From to KTNT

Sunrise and sunset
Times for 22-Jun-2018
 Local
(UTC-4)
 Zulu
(UTC)
Morning civil twilight06:0810:08
Sunrise06:3410:34
Sunset20:1700:17
Evening civil twilight20:4300:43

Current date and time
Zulu (UTC)  23-Jun-2018 02:42:05
Local (UTC-4)  22-Jun-2018 22:42:05
 
METAR
KTMB 
28nm SE 
230153Z 00000KT 10SM FEW029 FEW035 FEW060 27/22 A3000 RMK AO2 LTG DSNT SE SLP158 T02670222
KMIA 
32nm E 
230153Z 00000KT 10SM FEW035TCU SCT050 BKN140 OVC200 28/23 A3001 RMK AO2 LTG DSNT S RAB00E11 SLP161 TCU W P0000 T02780233 $
KOPF 
33nm E 
230153Z 05004KT 10SM -RA CLR 27/24 A3000 RMK AO2 RAB13E23B46 SLP161 P0000 T02720244
KHWO 
37nm E 
230153Z AUTO 28003KT 10SM -RA SCT090 27/23 A3001 RMK AO2 SLP163 P0000 T02720228
KHST 
37nm SE 
230156Z AUTO 19004KT 10SM VCTS FEW200 26/24 A2999 RMK AO2 SLP159 T02600242
KFLL 
42nm E 
230153Z 26004KT 10SM FEW028 FEW090 SCT110 BKN170 BKN250 27/24 A2999 RMK AO2 SLP156 T02670239
KMKY 
43nm W 
230156Z AUTO 27004KT 10SM CLR 29/24 A3001 RMK AO2 SLP161 T02890244
KFXE 
43nm NE 
230153Z 25005KT 10SM CLR 27/24 A3000 RMK AO2 SLP160 T02670239
KIMM 
44nm NW 
230215Z AUTO 00000KT 10SM BKN034 BKN040 26/24 A3002 RMK AO2
KPMP 
48nm NE 
230153Z AUTO 26004KT 10SM CLR 27/23 A2999 RMK AO2 SLP157 T02720233
TAF
KTMB 
28nm SE 
222129Z 2221/2318 VRB06KT P6SM VCTS SCT025CB BKN050 TEMPO 2221/2222 VRB15KT 4SM TSRA SCT015 BKN025CB FM230200 VRB02KT P6SM SCT050 SCT150 FM231400 27006KT P6SM SCT025 BKN050 PROB30 2315/2318 6SM SHRA SCT015 BKN025
KMIA 
32nm E 
222151Z 2222/2324 VRB06KT P6SM VCTS SCT025CB BKN050 TEMPO 2222/2223 VRB15KT 5SM TSRA SCT020 BKN030CB FM230200 VRB02KT P6SM SCT050 SCT150 FM231400 27006KT P6SM SCT025 BKN050 PROB30 2315/2318 6SM SHRA SCT015 BKN025
KOPF 
33nm E 
222149Z 2222/2318 VRB06KT P6SM VCTS SCT025CB BKN050 TEMPO 2222/2223 VRB10G20KT TSRA FM230200 VRB02KT P6SM SCT050 BKN100 FM231400 27006KT P6SM SCT025 BKN050 PROB30 2315/2318 6SM SHRA SCT015 BKN025
NOTAMs
Click for the latest NOTAMs
NOTAMs are issued by the DoD/FAA and will open in a separate window not controlled by AirNav.

 

 
 

Would you like to see your business listed on this page?

 If your business provides an interesting product or service to pilots, flight crews, aircraft, or users of the Dade-Collier Training and Transition Airport, you should consider listing it here.  To start the listing process, click on the button below
 
Add a business
 

Other Pages about Dade-Collier Training and Transition Airport

Update a link
 
Copyright © AirNav, LLC. All rights reserved. Privacy Policy  Contact